Time;durP1;ratioP1;P1;durP2;ratioP2;P2;SDS_P1;SDS_P2;PMS_P1;PMS_P2;Temp;Humidity;BMP_temperature;BMP_pressure;BME280_temperature;BME280_humidity;BME280_pressure;Samples;Min_cycle;Max_cycle;Signal;HPM_P1;HPM_P2
2023/09/29 00:01:24;;;;;;;12.10;7.28;;;15.60;89.80;;;;;;4960053;29;20027;-90
2023/09/29 00:03:50;;;;;;;9.90;7.25;;;15.60;90.00;;;;;;4963520;28;20027;-89
2023/09/29 00:06:16;;;;;;;9.48;7.60;;;15.60;90.10;;;;;;4958092;28;20029;-87
2023/09/29 00:08:45;;;;;;;13.50;7.95;;;15.60;90.10;;;;;;4970393;28;20114;-89
2023/09/29 00:11:14;;;;;;;11.05;6.15;;;15.50;90.50;;;;;;4970772;29;20043;-87
2023/09/29 00:13:40;;;;;;;12.95;6.90;;;15.50;90.30;;;;;;4972388;29;20023;-88
2023/09/29 00:16:06;;;;;;;9.48;7.70;;;15.50;90.30;;;;;;4966177;29;20050;-89
2023/09/29 00:18:31;;;;;;;10.45;7.88;;;15.40;90.40;;;;;;4961541;29;20106;-90
2023/09/29 00:20:57;;;;;;;13.02;6.90;;;15.50;90.50;;;;;;4939530;29;20046;-89
2023/09/29 00:23:24;;;;;;;8.77;7.28;;;15.40;90.40;;;;;;4957372;29;20102;-87
2023/09/29 00:25:50;;;;;;;10.18;7.68;;;15.40;90.40;;;;;;4957352;29;20027;-89
2023/09/29 00:28:17;;;;;;;14.73;7.50;;;15.40;90.50;;;;;;4940781;29;20493;-88
2023/09/29 00:30:43;;;;;;;8.50;7.18;;;15.40;90.60;;;;;;4958169;29;20087;-88
2023/09/29 00:33:09;;;;;;;12.88;7.43;;;15.40;90.70;;;;;;4959064;28;20031;-88
2023/09/29 00:35:35;;;;;;;10.35;6.68;;;15.30;90.70;;;;;;4948231;29;20121;-87
2023/09/29 00:38:01;;;;;;;9.82;7.40;;;15.30;90.80;;;;;;4970849;28;20079;-89
2023/09/29 00:40:28;;;;;;;14.27;7.97;;;15.30;90.80;;;;;;4981376;28;20031;-88
2023/09/29 00:42:55;;;;;;;9.98;7.20;;;15.30;90.80;;;;;;4947411;29;20027;-86
2023/09/29 00:45:26;;;;;;;11.52;7.72;;;15.40;90.90;;;;;;4963528;28;20525;-88
2023/09/29 00:47:57;;;;;;;9.82;6.82;;;15.30;90.90;;;;;;4958036;29;20031;-87
2023/09/29 00:50:26;;;;;;;9.23;6.68;;;15.30;90.80;;;;;;4948778;29;20086;-87
2023/09/29 00:52:53;;;;;;;11.60;7.45;;;15.30;90.90;;;;;;4971871;29;20023;-85
2023/09/29 00:55:27;;;;;;;9.20;7.28;;;15.20;90.90;;;;;;4937070;29;20038;-85
2023/09/29 00:57:59;;;;;;;11.38;7.30;;;15.20;91.10;;;;;;4955239;29;20043;-85
2023/09/29 01:02:55;;;;;;;13.65;8.00;;;15.10;91.20;;;;;;4953446;28;20030;-85
2023/09/29 01:05:21;;;;;;;13.95;6.55;;;15.20;91.20;;;;;;4956223;28;20019;-87
2023/09/29 01:07:47;;;;;;;14.02;7.35;;;15.10;91.20;;;;;;4954425;28;20015;-85
2023/09/29 01:10:13;;;;;;;12.43;7.93;;;15.10;91.20;;;;;;4954484;28;20086;-85
2023/09/29 01:12:40;;;;;;;10.40;7.78;;;15.10;91.50;;;;;;4936813;29;20078;-85
2023/09/29 01:15:11;;;;;;;11.20;7.28;;;15.10;91.40;;;;;;4954208;29;20019;-84
2023/09/29 01:17:41;;;;;;;9.88;7.25;;;15.10;91.40;;;;;;4955070;29;20035;-84
2023/09/29 01:20:19;;;;;;;10.73;7.45;;;15.10;91.50;;;;;;4954723;29;20055;-85
2023/09/29 01:22:48;;;;;;;15.27;7.85;;;15.10;91.50;;;;;;4954286;29;20031;-85
2023/09/29 01:25:15;;;;;;;10.07;7.18;;;15.10;91.50;;;;;;4954341;29;20075;-85
2023/09/29 01:27:41;;;;;;;14.10;7.20;;;15.10;91.50;;;;;;4933881;29;20497;-84
2023/09/29 01:30:07;;;;;;;8.98;7.10;;;15.10;91.50;;;;;;4951587;29;20055;-84
2023/09/29 01:32:34;;;;;;;11.60;7.50;;;15.10;91.50;;;;;;4954781;28;20035;-86
2023/09/29 01:35:00;;;;;;;12.40;7.57;;;15.10;91.50;;;;;;4957780;28;20023;-85
2023/09/29 01:37:26;;;;;;;11.85;7.03;;;15.10;91.60;;;;;;4958083;29;20031;-86
2023/09/29 01:39:52;;;;;;;9.63;6.82;;;15.10;91.70;;;;;;4959330;29;20429;-87
2023/09/29 01:42:19;;;;;;;15.80;7.85;;;15.10;91.60;;;;;;4977138;28;20027;-84
2023/09/29 01:44:46;;;;;;;9.63;6.50;;;15.00;91.60;;;;;;4939513;29;20050;-86
2023/09/29 01:47:12;;;;;;;12.80;7.20;;;15.00;91.70;;;;;;4952736;29;20042;-86
2023/09/29 01:49:37;;;;;;;10.18;6.93;;;15.00;91.70;;;;;;4956844;29;20023;-86
2023/09/29 01:52:03;;;;;;;14.20;7.28;;;15.00;91.70;;;;;;4941574;29;20042;-86
2023/09/29 01:54:29;;;;;;;10.93;7.60;;;15.00;91.70;;;;;;4961973;28;20075;-87
2023/09/29 01:56:55;;;;;;;12.95;8.18;;;15.00;91.80;;;;;;4957777;29;20038;-88
2023/09/29 01:59:22;;;;;;;11.43;7.28;;;15.00;91.80;;;;;;4973008;28;20023;-87
2023/09/29 02:01:48;;;;;;;7.82;7.00;;;14.90;91.80;;;;;;4967344;28;20030;-87
2023/09/29 02:04:14;;;;;;;10.27;8.07;;;14.90;91.90;;;;;;4960480;28;20067;-88
2023/09/29 02:06:40;;;;;;;12.95;8.10;;;14.90;92.00;;;;;;4957542;29;20457;-88
2023/09/29 02:09:10;;;;;;;11.30;7.22;;;14.90;92.00;;;;;;4958567;28;20027;-86
2023/09/29 02:11:39;;;;;;;10.63;7.45;;;14.90;92.10;;;;;;4959848;28;20026;-86
2023/09/29 02:14:05;;;;;;;9.73;7.70;;;14.80;92.10;;;;;;4975344;29;20118;-86
2023/09/29 02:16:32;;;;;;;11.73;7.57;;;14.80;92.20;;;;;;4961170;29;20074;-86
2023/09/29 02:18:58;;;;;;;13.63;6.72;;;14.80;92.30;;;;;;4956022;29;20051;-85
2023/09/29 02:21:27;;;;;;;14.70;7.90;;;14.80;92.40;;;;;;4958910;28;20027;-87
2023/09/29 02:23:55;;;;;;;10.90;7.30;;;14.80;92.40;;;;;;4957183;29;20119;-87
2023/09/29 02:26:22;;;;;;;;;;;14.80;92.50;;;;;;4938499;29;20031;-87
2023/09/29 02:28:49;;;;;;;10.20;6.82;;;14.70;92.20;;;;;;4957325;29;19913;-86
2023/09/29 02:31:15;;;;;;;12.20;7.10;;;14.70;92.40;;;;;;4957383;29;20087;-86
2023/09/29 02:33:41;;;;;;;12.27;6.88;;;14.70;92.40;;;;;;4957870;29;20058;-87
2023/09/29 02:36:08;;;;;;;12.30;7.70;;;14.70;92.60;;;;;;4958983;28;20086;-87
2023/09/29 02:38:36;;;;;;;11.68;7.63;;;14.70;92.70;;;;;;4948126;29;20027;-86
2023/09/29 02:41:02;;;;;;;11.52;7.35;;;14.70;92.60;;;;;;4958114;29;20051;-86
2023/09/29 02:43:30;;;;;;;10.45;8.02;;;14.70;92.70;;;;;;4960099;28;20019;-85
2023/09/29 02:45:56;;;;;;;14.82;8.25;;;14.70;92.70;;;;;;4957276;28;20054;-86
2023/09/29 02:48:23;;;;;;;13.52;7.70;;;14.70;92.80;;;;;;4958463;28;20042;-86
2023/09/29 02:50:49;;;;;;;12.37;7.77;;;14.60;92.80;;;;;;4963227;29;20136;-85
2023/09/29 02:53:15;;;;;;;12.98;7.45;;;14.60;92.80;;;;;;4963082;29;20476;-87
2023/09/29 02:55:45;;;;;;;10.93;7.68;;;14.60;92.80;;;;;;4969933;29;20435;-86
2023/09/29 02:58:12;;;;;;;13.95;7.05;;;14.60;92.90;;;;;;4959491;29;20031;-88
2023/09/29 03:00:39;;;;;;;10.90;6.70;;;14.60;92.90;;;;;;4957518;28;20015;-86
2023/09/29 03:03:06;;;;;;;12.15;7.05;;;14.60;93.00;;;;;;4957430;29;20269;-87
2023/09/29 03:05:35;;;;;;;11.77;7.20;;;14.60;93.10;;;;;;4956741;28;20027;-86
2023/09/29 03:08:03;;;;;;;9.52;7.65;;;14.60;93.10;;;;;;4957136;28;20019;-86
2023/09/29 03:10:29;;;;;;;12.38;7.07;;;14.60;93.20;;;;;;4957426;29;20023;-86
2023/09/29 03:12:58;;;;;;;11.40;7.45;;;14.60;93.20;;;;;;4958301;29;20115;-86
2023/09/29 03:15:24;;;;;;;14.25;7.65;;;14.50;93.30;;;;;;4941084;29;20361;-85
2023/09/29 03:17:52;;;;;;;10.75;8.32;;;14.60;93.30;;;;;;4939906;29;20038;-88
2023/09/29 03:20:18;;;;;;;11.50;7.45;;;14.50;93.30;;;;;;4957797;29;20026;-87
2023/09/29 03:22:46;;;;;;;14.23;8.25;;;14.60;93.30;;;;;;4942239;29;20031;-87
2023/09/29 03:25:20;;;;;;;10.23;7.30;;;14.60;93.30;;;;;;4943052;29;20023;-86
2023/09/29 03:27:47;;;;;;;10.18;7.95;;;14.50;93.40;;;;;;4965768;29;20031;-88
2023/09/29 03:30:15;;;;;;;15.45;8.43;;;14.50;93.40;;;;;;4953763;29;20062;-84
2023/09/29 03:32:42;;;;;;;13.52;8.95;;;14.50;93.40;;;;;;4951868;29;20046;-86
2023/09/29 03:35:08;;;;;;;12.95;8.52;;;14.50;93.50;;;;;;4968051;29;20111;-87
2023/09/29 03:37:36;;;;;;;12.70;7.72;;;14.50;93.50;;;;;;4934310;29;20095;-87
2023/09/29 03:40:08;;;;;;;15.15;8.43;;;14.50;93.50;;;;;;4962825;29;20034;-85
2023/09/29 03:42:35;;;;;;;12.35;7.72;;;14.50;93.50;;;;;;4962495;29;20055;-86
2023/09/29 03:45:05;;;;;;;13.10;7.93;;;14.50;93.60;;;;;;4956693;29;20023;-85
2023/09/29 03:47:33;;;;;;;9.13;7.35;;;14.50;93.60;;;;;;4963515;29;20058;-85
2023/09/29 03:49:59;;;;;;;13.52;8.15;;;14.50;93.70;;;;;;4974961;28;20086;-86
2023/09/29 03:52:25;;;;;;;13.73;8.23;;;14.50;93.60;;;;;;4957522;29;20058;-85
2023/09/29 03:54:51;;;;;;;13.27;8.95;;;14.60;93.60;;;;;;4957779;29;20540;-87
2023/09/29 03:57:17;;;;;;;11.05;8.13;;;14.60;93.60;;;;;;4955692;28;20036;-86
2023/09/29 03:59:44;;;;;;;15.20;8.07;;;14.60;93.90;;;;;;4960946;29;20050;-85
2023/09/29 04:02:09;;;;;;;14.80;8.07;;;14.70;93.60;;;;;;4960570;29;20489;-85
2023/09/29 04:04:35;;;;;;;15.02;8.60;;;14.70;93.50;;;;;;4962138;29;20024;-86
2023/09/29 04:07:03;;;;;;;19.15;13.13;;;14.70;93.60;;;;;;4960336;28;20171;-86
2023/09/29 04:09:30;;;;;;;11.68;7.75;;;14.70;93.60;;;;;;4958950;29;20397;-86
2023/09/29 04:11:56;;;;;;;14.07;8.23;;;14.80;93.50;;;;;;4941988;29;20078;-89
2023/09/29 04:14:22;;;;;;;12.07;8.32;;;14.80;93.50;;;;;;4956518;29;20440;-86
2023/09/29 04:16:47;;;;;;;13.48;8.80;;;14.80;93.80;;;;;;4955688;29;20058;-87
2023/09/29 04:19:14;;;;;;;11.35;7.95;;;14.90;93.50;;;;;;4956168;29;20483;-87
2023/09/29 04:21:40;;;;;;;11.73;8.30;;;14.80;93.40;;;;;;4957400;28;20110;-88
2023/09/29 04:24:06;;;;;;;14.70;9.65;;;14.80;93.40;;;;;;4940248;29;20026;-87
2023/09/29 04:26:32;;;;;;;13.75;9.13;;;14.90;93.30;;;;;;4941180;29;20031;-88
2023/09/29 04:28:58;;;;;;;13.00;9.38;;;14.90;93.20;;;;;;4947769;28;20019;-87
2023/09/29 04:31:24;;;;;;;12.65;8.95;;;14.90;93.20;;;;;;4931975;29;20031;-86
2023/09/29 04:33:50;;;;;;;16.75;9.82;;;15.00;93.20;;;;;;4937370;29;20019;-88
2023/09/29 04:36:15;;;;;;;15.23;8.70;;;15.00;93.20;;;;;;4938442;29;20404;-87
2023/09/29 04:38:41;;;;;;;19.85;9.90;;;15.00;93.30;;;;;;4937569;29;20532;-88
2023/09/29 04:41:07;;;;;;;38.95;13.18;;;15.10;93.10;;;;;;4935877;29;20493;-88
2023/09/29 04:43:36;;;;;;;15.95;9.35;;;15.10;93.10;;;;;;4936445;29;20095;-90
2023/09/29 04:46:01;;;;;;;15.27;8.63;;;15.20;93.10;;;;;;4934849;29;20027;-88
2023/09/29 04:48:27;;;;;;;13.55;8.85;;;15.20;93.00;;;;;;4935654;29;20536;-89
2023/09/29 04:50:54;;;;;;;16.17;9.20;;;15.30;92.90;;;;;;4936265;29;20041;-88
2023/09/29 04:53:20;;;;;;;12.07;8.68;;;15.30;92.90;;;;;;4924169;29;20024;-89
2023/09/29 04:55:46;;;;;;;13.20;8.18;;;15.30;92.70;;;;;;4935493;29;20111;-88
2023/09/29 04:58:12;;;;;;;11.00;8.20;;;15.40;92.70;;;;;;4936968;29;20067;-89
2023/09/29 05:00:38;;;;;;;15.77;8.65;;;15.40;92.60;;;;;;4941062;29;20028;-87
2023/09/29 05:03:04;;;;;;;13.10;8.13;;;15.40;92.50;;;;;;4931621;29;20122;-86
2023/09/29 05:05:29;;;;;;;15.73;9.07;;;15.50;92.50;;;;;;4946873;29;20026;-88
2023/09/29 05:07:56;;;;;;;18.05;9.82;;;15.50;92.40;;;;;;4916179;29;20016;-87
2023/09/29 05:10:22;;;;;;;11.68;8.48;;;15.60;92.40;;;;;;4930286;29;20036;-87
2023/09/29 05:12:47;;;;;;;31.80;10.88;;;15.60;92.40;;;;;;4919091;29;20035;-87
2023/09/29 05:15:13;;;;;;;49.53;13.27;;;15.60;92.20;;;;;;4936227;29;20028;-87
2023/09/29 05:17:39;;;;;;;29.98;10.75;;;15.60;92.20;;;;;;4918433;29;20115;-88
2023/09/29 05:20:06;;;;;;;18.92;8.93;;;15.70;92.10;;;;;;4939699;29;20504;-89
2023/09/29 05:22:32;;;;;;;10.97;8.40;;;15.70;92.10;;;;;;4935468;29;20610;-87
2023/09/29 05:24:59;;;;;;;17.13;9.32;;;15.80;92.00;;;;;;4936040;29;20004;-86
2023/09/29 05:27:25;;;;;;;16.13;10.63;;;15.90;91.90;;;;;;4919469;29;20507;-84
2023/09/29 05:29:50;;;;;;;12.65;9.70;;;15.90;91.90;;;;;;4927809;29;20050;-87
2023/09/29 05:32:16;;;;;;;16.58;8.90;;;16.10;91.70;;;;;;4947211;29;20039;-88
2023/09/29 05:34:42;;;;;;;14.30;9.18;;;16.20;91.40;;;;;;4952973;29;20427;-87
2023/09/29 05:37:08;;;;;;;16.77;9.20;;;16.20;91.00;;;;;;4969969;29;20047;-88
2023/09/29 05:39:34;;;;;;;20.55;10.63;;;16.20;91.00;;;;;;4962007;29;20082;-88
2023/09/29 05:42:00;;;;;;;20.92;12.07;;;16.30;90.90;;;;;;4942944;28;20031;-89
2023/09/29 05:44:27;;;;;;;14.98;9.68;;;16.30;90.90;;;;;;4941752;29;20023;-89
2023/09/29 05:46:52;;;;;;;13.18;10.18;;;16.40;90.70;;;;;;4954246;29;20032;-88
2023/09/29 05:49:18;;;;;;;14.18;9.25;;;16.40;90.60;;;;;;4939550;29;20090;-88
2023/09/29 05:51:44;;;;;;;17.30;9.73;;;16.40;90.60;;;;;;4943360;29;20031;-87
2023/09/29 05:54:10;;;;;;;29.63;12.25;;;16.40;90.60;;;;;;4938691;29;20504;-87
2023/09/29 05:56:36;;;;;;;43.78;12.23;;;16.40;90.50;;;;;;4948929;29;20050;-89
2023/09/29 05:59:02;;;;;;;17.45;10.82;;;16.50;90.60;;;;;;4952999;28;20023;-88
2023/09/29 06:01:28;;;;;;;16.70;10.57;;;16.50;90.50;;;;;;4939923;29;20095;-89
2023/09/29 06:03:53;;;;;;;17.23;11.10;;;16.60;90.30;;;;;;4938358;29;20078;-88
2023/09/29 06:06:19;;;;;;;20.92;10.63;;;16.60;90.30;;;;;;4957368;28;20027;-88
2023/09/29 06:08:48;;;;;;;18.98;11.93;;;16.70;90.20;;;;;;4938137;28;20023;-87
2023/09/29 06:11:13;;;;;;;21.40;12.48;;;16.70;90.10;;;;;;4954818;28;20023;-88
2023/09/29 06:13:39;;;;;;;24.38;11.73;;;16.80;90.20;;;;;;4940031;29;20039;-89
2023/09/29 06:16:05;;;;;;;19.10;12.38;;;16.80;90.10;;;;;;4963594;28;20028;-88
2023/09/29 06:18:31;;;;;;;19.92;11.23;;;16.80;90.00;;;;;;4974829;28;20043;-88
2023/09/29 06:20:57;;;;;;;18.75;11.32;;;16.90;89.80;;;;;;4947181;29;20035;-88
2023/09/29 06:23:23;;;;;;;18.10;11.30;;;17.00;89.50;;;;;;4953360;28;20079;-88
2023/09/29 06:26:09;;;;;;;18.13;11.90;;;17.00;89.30;;;;;;4956704;29;20027;-87
2023/09/29 06:28:35;;;;;;;16.92;11.00;;;17.10;89.30;;;;;;4943952;29;20023;-86
2023/09/29 06:31:01;;;;;;;17.67;12.52;;;17.10;89.30;;;;;;4958947;29;20058;-87
2023/09/29 06:33:26;;;;;;;17.48;11.40;;;17.10;89.50;;;;;;4958652;28;20019;-87
2023/09/29 06:35:52;;;;;;;23.42;12.50;;;17.30;88.60;;;;;;4958553;28;20058;-84
2023/09/29 06:38:18;;;;;;;19.73;11.80;;;17.30;88.60;;;;;;4940497;28;20568;-85
2023/09/29 06:40:44;;;;;;;23.30;12.35;;;17.30;88.30;;;;;;4957634;29;20115;-84
2023/09/29 06:43:10;;;;;;;19.42;11.50;;;17.40;88.40;;;;;;4957344;28;20027;-85
2023/09/29 06:45:37;;;;;;;17.65;12.50;;;17.50;88.40;;;;;;4956974;28;20584;-86
2023/09/29 06:48:04;;;;;;;17.23;11.32;;;17.60;88.20;;;;;;4957985;28;20085;-85
2023/09/29 06:50:31;;;;;;;19.48;12.25;;;17.60;88.30;;;;;;4957656;28;20023;-86
2023/09/29 06:52:56;;;;;;;22.88;12.98;;;17.80;88.10;;;;;;4939318;29;20473;-86
2023/09/29 06:55:22;;;;;;;178.10;63.22;;;17.80;87.70;;;;;;4956804;29;20039;-86
2023/09/29 06:57:48;;;;;;;93.13;25.63;;;18.00;87.60;;;;;;4947783;29;20115;-86
2023/09/29 07:00:15;;;;;;;24.75;12.48;;;18.10;87.30;;;;;;4970797;29;20082;-88
2023/09/29 07:02:41;;;;;;;21.52;11.57;;;18.20;86.70;;;;;;4955193;29;20119;-87
2023/09/29 07:05:07;;;;;;;19.17;11.52;;;18.30;86.10;;;;;;4956570;28;20051;-84
2023/09/29 07:07:33;;;;;;;43.97;15.93;;;18.40;85.90;;;;;;4940968;29;20035;-86
2023/09/29 07:09:59;;;;;;;25.55;12.30;;;18.40;85.80;;;;;;4956967;28;20026;-89
2023/09/29 07:12:25;;;;;;;19.90;11.20;;;18.50;85.40;;;;;;4957670;28;20027;-87
2023/09/29 07:14:51;;;;;;;15.05;11.60;;;18.60;84.60;;;;;;4972583;28;20043;-88
2023/09/29 07:17:17;;;;;;;19.65;10.05;;;18.80;84.00;;;;;;4959816;29;20496;-86
2023/09/29 07:19:43;;;;;;;21.30;10.07;;;19.00;83.20;;;;;;4962156;29;20030;-86
2023/09/29 07:22:09;;;;;;;15.13;10.40;;;19.70;82.60;;;;;;4963534;28;20042;-86
2023/09/29 07:24:38;;;;;;;18.75;10.73;;;21.20;80.00;;;;;;4955768;29;20380;-85
2023/09/29 07:27:04;;;;;;;77.28;18.75;;;22.90;74.80;;;;;;4938801;29;20023;-85
2023/09/29 07:29:30;;;;;;;22.95;11.63;;;24.60;70.60;;;;;;4971071;28;20067;-85
2023/09/29 07:31:55;;;;;;;97.15;29.40;;;26.10;65.40;;;;;;4936268;29;20058;-87
2023/09/29 07:34:27;;;;;;;17.02;8.75;;;27.30;61.40;;;;;;4956928;29;20027;-86
2023/09/29 07:36:53;;;;;;;27.23;10.68;;;28.20;58.20;;;;;;4939070;29;20062;-86
2023/09/29 07:39:20;;;;;;;14.93;9.07;;;29.00;57.10;;;;;;4956976;29;20063;-88
2023/09/29 07:41:46;;;;;;;11.98;7.53;;;29.30;54.80;;;;;;4940062;28;20035;-87
2023/09/29 07:44:12;;;;;;;12.80;9.10;;;29.70;53.60;;;;;;4939974;29;20290;-88
2023/09/29 07:46:38;;;;;;;23.13;9.87;;;30.00;52.80;;;;;;4957245;29;20031;-87
2023/09/29 07:49:05;;;;;;;54.07;14.13;;;29.90;52.90;;;;;;4942045;29;20024;-89
2023/09/29 07:51:32;;;;;;;18.95;9.98;;;30.60;52.10;;;;;;4954157;29;20031;-87
2023/09/29 07:53:58;;;;;;;37.15;11.80;;;31.30;50.70;;;;;;4955695;29;20030;-87
2023/09/29 07:56:24;;;;;;;20.80;9.57;;;31.70;49.60;;;;;;4937687;29;20039;-85
2023/09/29 07:58:51;;;;;;;36.73;10.97;;;32.20;48.70;;;;;;4956510;29;20050;-85
2023/09/29 08:01:18;;;;;;;73.07;20.42;;;32.50;48.20;;;;;;4939996;29;20030;-88
2023/09/29 08:03:44;;;;;;;16.73;9.43;;;33.00;48.30;;;;;;4956297;29;20536;-87
2023/09/29 08:06:10;;;;;;;47.75;16.58;;;33.40;47.50;;;;;;4947777;29;20018;-86
2023/09/29 08:08:36;;;;;;;26.88;15.43;;;33.70;46.50;;;;;;4975190;29;20030;-88
2023/09/29 08:11:02;;;;;;;14.30;9.40;;;34.20;45.80;;;;;;4966010;29;20042;-85
2023/09/29 08:13:28;;;;;;;25.27;10.23;;;;;;;;;;4966482;28;20065;-85
2023/09/29 08:15:54;;;;;;;22.85;10.63;;;34.60;45.30;;;;;;4953676;29;20428;-86
2023/09/29 08:18:20;;;;;;;19.90;10.57;;;35.70;44.70;;;;;;4950223;29;20564;-88
2023/09/29 08:20:54;;;;;;;22.73;11.18;;;35.60;43.40;;;;;;4964650;29;20093;-87
2023/09/29 08:23:20;;;;;;;43.30;14.60;;;35.70;43.50;;;;;;4944986;29;20038;-86
2023/09/29 08:25:46;;;;;;;14.90;9.23;;;36.00;43.20;;;;;;4958314;29;20081;-87
2023/09/29 08:28:13;;;;;;;;;;;36.00;42.70;;;;;;4957663;29;20505;-89
2023/09/29 08:30:39;;;;;;;57.72;19.08;;;35.80;44.10;;;;;;4941736;29;19949;-89
2023/09/29 08:33:05;;;;;;;;;;;35.80;43.10;;;;;;4969039;29;20038;-90
2023/09/29 08:35:31;;;;;;;;;;;36.30;44.50;;;;;;4955565;28;19911;-89
2023/09/29 08:37:57;;;;;;;19.80;8.63;;;36.50;45.20;;;;;;4952788;29;20374;-90
2023/09/29 08:40:23;;;;;;;18.95;8.60;;;36.80;42.10;;;;;;4956735;29;20677;-91
2023/09/29 08:42:49;;;;;;;16.17;8.88;;;37.20;41.50;;;;;;4959928;28;20054;-89
2023/09/29 08:45:19;;;;;;;16.60;8.23;;;37.20;41.20;;;;;;4956743;29;20054;-88
2023/09/29 08:47:52;;;;;;;14.77;8.25;;;37.20;41.10;;;;;;4955269;29;20031;-85
2023/09/29 08:50:24;;;;;;;11.95;7.50;;;36.90;41.20;;;;;;4937719;29;20515;-87
2023/09/29 08:52:52;;;;;;;19.27;11.07;;;36.70;41.20;;;;;;4954450;29;20507;-86
2023/09/29 08:55:18;;;;;;;14.85;7.95;;;36.50;41.60;;;;;;4937411;29;20031;-87
2023/09/29 08:57:45;;;;;;;21.15;9.93;;;36.40;41.40;;;;;;4958502;29;20040;-89
2023/09/29 09:00:14;;;;;;;13.27;7.55;;;36.00;42.10;;;;;;4959947;29;20019;-87
2023/09/29 09:02:44;;;;;;;14.48;7.78;;;36.20;42.00;;;;;;4938573;29;20457;-88
2023/09/29 09:05:11;;;;;;;15.48;8.13;;;35.90;41.40;;;;;;4957758;29;20031;-87
2023/09/29 09:07:40;;;;;;;13.70;8.27;;;34.80;42.70;;;;;;4960689;29;20027;-85
2023/09/29 09:10:06;;;;;;;12.15;7.97;;;34.10;43.60;;;;;;4955505;29;20034;-89
2023/09/29 09:12:36;;;;;;;8.85;6.53;;;33.50;44.30;;;;;;4954847;29;20231;-87
2023/09/29 09:15:04;;;;;;;16.83;8.57;;;33.10;45.00;;;;;;4937973;29;20512;-86
2023/09/29 09:17:34;;;;;;;29.17;9.77;;;32.80;45.70;;;;;;4954897;29;20063;-89
2023/09/29 09:20:01;;;;;;;31.42;13.55;;;33.60;45.20;;;;;;4950636;29;20465;-86
2023/09/29 09:22:32;;;;;;;14.93;7.70;;;34.60;44.20;;;;;;4937736;29;20086;-88
2023/09/29 09:25:04;;;;;;;13.85;6.82;;;35.20;43.00;;;;;;4938975;29;20034;-89
2023/09/29 09:27:38;;;;;;;14.18;7.00;;;35.50;42.50;;;;;;4955718;28;20027;-88
2023/09/29 09:30:05;;;;;;;12.40;7.60;;;35.40;42.70;;;;;;4965179;28;20108;-89
2023/09/29 09:32:31;;;;;;;13.18;7.15;;;35.20;42.60;;;;;;4963877;28;20038;-87
2023/09/29 09:34:58;;;;;;;17.70;7.60;;;35.40;42.40;;;;;;4957890;28;20105;-85
2023/09/29 09:37:25;;;;;;;21.42;9.40;;;35.40;42.30;;;;;;4955968;29;20047;-89
2023/09/29 09:39:55;;;;;;;34.33;10.38;;;35.80;42.50;;;;;;4943195;29;20020;-87
2023/09/29 09:42:25;;;;;;;20.65;11.05;;;36.40;41.80;;;;;;4953956;28;20031;-86
2023/09/29 09:44:57;;;;;;;33.15;19.02;;;36.80;40.80;;;;;;4939070;29;20030;-86
2023/09/29 09:47:25;;;;;;;17.33;8.13;;;36.90;40.70;;;;;;4963598;28;20045;-85
2023/09/29 09:49:55;;;;;;;13.00;8.50;;;37.00;40.40;;;;;;4955811;28;20066;-86
2023/09/29 09:52:26;;;;;;;14.15;7.28;;;36.60;40.40;;;;;;4955177;28;20115;-86
2023/09/29 09:54:55;;;;;;;12.95;7.82;;;35.80;40.90;;;;;;4957463;28;20508;-87
2023/09/29 09:57:27;;;;;;;21.17;7.95;;;35.70;41.60;;;;;;4957563;29;20148;-85
2023/09/29 09:59:54;;;;;;;11.43;7.10;;;35.70;41.40;;;;;;4976814;28;20110;-87
2023/09/29 10:02:24;;;;;;;15.00;9.23;;;36.30;41.00;;;;;;4959483;29;20019;-88
2023/09/29 10:04:51;;;;;;;13.43;6.88;;;37.10;40.40;;;;;;4943455;29;20071;-87
2023/09/29 10:07:20;;;;;;;23.90;11.05;;;37.70;39.50;;;;;;4969803;28;20432;-89
2023/09/29 10:09:49;;;;;;;10.98;6.78;;;37.60;39.30;;;;;;4974877;28;20094;-87
2023/09/29 10:12:26;;;;;;;13.10;8.18;;;36.70;39.30;;;;;;4950790;29;20377;-86
2023/09/29 10:14:52;;;;;;;15.52;7.38;;;35.00;41.00;;;;;;4962294;28;20034;-90
2023/09/29 10:17:20;;;;;;;13.15;7.03;;;;;;;;;;4949594;29;20059;-91
2023/09/29 10:19:50;;;;;;;15.05;8.02;;;;;;;;;;4972000;28;20385;-89
2023/09/29 10:22:28;;;;;;;13.00;7.85;;;;;;;;;;4954797;29;20054;-89
2023/09/29 10:24:59;;;;;;;13.93;8.45;;;33.20;42.80;;;;;;4963527;29;20090;-88
2023/09/29 10:27:33;;;;;;;21.38;9.23;;;;;;;;;;4940528;29;20156;-89
2023/09/29 10:30:18;;;;;;;12.93;7.82;;;;;;;;;;4956675;28;20039;-88
2023/09/29 10:32:48;;;;;;;16.00;8.63;;;;;;;;;;4958728;29;20084;-88
2023/09/29 10:35:20;;;;;;;16.23;8.00;;;;;;;;;;4939379;29;20027;-91
2023/09/29 10:37:49;;;;;;;19.85;9.23;;;;;;;;;;4958702;28;20043;-92
2023/09/29 10:40:22;;;;;;;18.35;8.57;;;;;;;;;;4955869;29;20028;-90
2023/09/29 10:42:56;;;;;;;16.90;8.75;;;28.90;49.50;;;;;;4967269;28;20027;-93
2023/09/29 10:45:30;;;;;;;14.10;7.57;;;;;;;;;;4966858;28;20030;-90
2023/09/29 10:48:04;;;;;;;19.00;7.88;;;;;;;;;;4945647;29;20053;-88
2023/09/29 10:50:30;;;;;;;16.30;7.38;;;;;;;;;;4946807;28;20022;-87
2023/09/29 10:52:56;;;;;;;16.17;7.55;;;26.30;54.90;;;;;;4960264;28;20528;-85
2023/09/29 10:55:22;;;;;;;13.43;9.25;;;25.50;55.80;;;;;;4961292;29;20035;-86
2023/09/29 10:57:49;;;;;;;12.70;6.82;;;25.30;56.70;;;;;;4958430;28;20403;-90
2023/09/29 11:00:15;;;;;;;;;;;25.20;56.40;;;;;;4951776;29;20042;-90
2023/09/29 11:02:42;;;;;;;13.90;8.02;;;25.00;55.90;;;;;;4965036;28;19910;-82
2023/09/29 11:05:09;;;;;;;14.00;8.23;;;24.80;56.70;;;;;;4956578;28;20024;-86
2023/09/29 11:07:50;;;;;;;15.55;8.68;;;24.70;57.40;;;;;;4957278;28;20016;-82
2023/09/29 11:10:19;;;;;;;19.05;7.55;;;24.70;57.70;;;;;;4956236;28;20034;-88
2023/09/29 11:12:47;;;;;;;17.42;8.65;;;24.70;57.70;;;;;;4958060;29;20024;-90
2023/09/29 11:15:15;;;;;;;15.70;7.50;;;24.60;57.60;;;;;;4957172;29;20041;-90
2023/09/29 11:17:50;;;;;;;13.38;7.93;;;24.50;57.60;;;;;;4939490;29;20175;-87
2023/09/29 11:20:27;;;;;;;12.40;8.65;;;24.50;57.80;;;;;;4962486;29;20536;-87
2023/09/29 11:23:08;;;;;;;16.83;8.65;;;24.50;57.60;;;;;;4962410;28;20584;-86
2023/09/29 11:26:04;;;;;;;18.77;8.13;;;24.50;57.60;;;;;;4957100;28;20042;-87
2023/09/29 11:28:58;;;;;;;16.40;7.88;;;24.50;57.40;;;;;;4947817;29;20023;-89
2023/09/29 11:31:24;;;;;;;10.90;6.78;;;24.40;57.30;;;;;;4943583;29;20051;-87
2023/09/29 11:33:51;;;;;;;17.90;7.43;;;24.40;57.40;;;;;;5035401;23;20112;-91
2023/09/29 11:36:19;;;;;;;15.27;8.23;;;24.30;57.00;;;;;;5039801;28;20041;-87
2023/09/29 11:38:46;;;;;;;20.40;7.03;;;24.30;57.00;;;;;;5056307;28;20032;-86
2023/09/29 11:41:13;;;;;;;14.98;8.45;;;24.30;56.80;;;;;;5057083;28;20025;-86
2023/09/29 11:43:39;;;;;;;;;;;24.30;57.00;;;;;;5045104;28;20028;-86
2023/09/29 11:46:05;;;;;;;10.02;8.00;;;24.20;56.60;;;;;;5057803;28;19908;-87
2023/09/29 11:48:31;;;;;;;12.85;7.82;;;24.10;57.00;;;;;;5058393;28;20080;-87
2023/09/29 11:50:57;;;;;;;19.63;7.28;;;24.10;57.20;;;;;;5053258;28;20088;-87
2023/09/29 11:53:25;;;;;;;14.48;7.57;;;24.10;57.10;;;;;;5055985;28;20044;-87
2023/09/29 11:55:52;;;;;;;74.28;18.73;;;24.00;56.80;;;;;;5042209;28;20059;-88
2023/09/29 11:58:20;;;;;;;16.10;6.85;;;24.10;57.20;;;;;;5045096;28;20041;-87
2023/09/29 12:00:47;;;;;;;11.63;6.35;;;24.10;56.70;;;;;;5022468;28;20526;-88
2023/09/29 12:03:17;;;;;;;11.43;6.75;;;24.10;56.40;;;;;;5024574;28;20053;-87
2023/09/29 12:05:49;;;;;;;13.70;7.72;;;24.00;56.30;;;;;;5031529;28;20112;-88
2023/09/29 12:08:15;;;;;;;13.73;7.03;;;24.00;56.70;;;;;;5040716;28;20025;-86
2023/09/29 12:10:42;;;;;;;12.00;8.18;;;24.00;56.50;;;;;;5026839;28;20032;-88
2023/09/29 12:13:10;;;;;;;14.65;6.70;;;23.90;56.70;;;;;;5045203;28;20036;-89
2023/09/29 12:15:36;;;;;;;17.33;7.03;;;24.00;56.50;;;;;;5057100;28;20017;-91
2023/09/29 12:18:02;;;;;;;59.40;21.10;;;24.00;56.30;;;;;;5052249;28;20025;-92
2023/09/29 12:20:28;;;;;;;21.08;7.93;;;24.00;56.60;;;;;;5041616;28;20080;-88
2023/09/29 12:22:55;;;;;;;18.85;9.55;;;24.00;56.30;;;;;;5057861;28;20029;-93
2023/09/29 12:25:21;;;;;;;13.93;6.22;;;24.00;56.40;;;;;;5042089;28;20025;-92
2023/09/29 12:27:48;;;;;;;22.08;11.30;;;24.00;56.30;;;;;;5046247;28;20030;-89
2023/09/29 12:30:17;;;;;;;13.85;7.20;;;24.00;57.30;;;;;;5040344;28;20035;-88
2023/09/29 12:32:45;;;;;;;26.85;8.80;;;24.10;55.90;;;;;;5022192;28;20037;-87
2023/09/29 12:35:15;;;;;;;23.52;10.38;;;24.30;56.00;;;;;;5036323;28;20049;-85
2023/09/29 12:37:45;;;;;;;20.70;8.50;;;24.30;56.40;;;;;;5052075;28;20048;-87
2023/09/29 12:40:12;;;;;;;11.85;6.18;;;24.20;55.10;;;;;;5057071;28;20112;-86
2023/09/29 12:42:46;;;;;;;;;;;24.20;54.80;;;;;;5040811;28;20112;-88
2023/09/29 12:45:14;;;;;;;12.07;6.38;;;24.20;54.60;;;;;;5058611;28;20328;-83